createdAt,value
2022-12-23T00:00:56.558Z,98556.88
2022-12-23T00:03:24.908Z,98558.75
2022-12-23T00:05:53.272Z,98559.41
2022-12-23T00:08:21.825Z,98559.22
2022-12-23T00:10:50.401Z,98559.63
2022-12-23T00:13:36.588Z,98564.72
2022-12-23T00:16:08.481Z,98560.53
2022-12-23T00:18:36.354Z,98555.63
2022-12-23T00:21:08.822Z,98558.69
2022-12-23T00:23:39.594Z,98563.91
2022-12-23T00:26:08.273Z,98564.53
2022-12-23T00:28:35.787Z,98555.88
2022-12-23T00:31:06.835Z,98554.44
2022-12-23T00:33:37.194Z,98565.50
2022-12-23T00:36:12.786Z,98559.50
2022-12-23T00:38:58.097Z,98551.97
2022-12-23T00:41:43.593Z,98556.75
2022-12-23T00:44:11.189Z,98558.56
2022-12-23T00:46:40.500Z,98558.56
2022-12-23T00:49:25.784Z,98559.75
2022-12-23T00:51:53.534Z,98552.22
2022-12-23T00:54:21.169Z,98557.84
2022-12-23T00:56:48.775Z,98548.91
2022-12-23T00:59:16.461Z,98553.06
2022-12-23T01:02:03.485Z,98555.56
2022-12-23T01:04:50.262Z,98568.44
2022-12-23T01:07:17.801Z,98559.16
2022-12-23T01:09:45.522Z,98567.94
2022-12-23T01:12:13.233Z,98566.69
2022-12-23T01:14:41.219Z,98568.56
2022-12-23T01:17:10.267Z,98566.84
2022-12-23T01:19:38.033Z,98571.66
2022-12-23T01:22:05.789Z,98576.84
2022-12-23T01:24:34.162Z,98575.78
2022-12-23T01:27:02.076Z,98581.41
2022-12-23T01:29:29.815Z,98578.97
2022-12-23T01:31:57.601Z,98586.19
2022-12-23T01:34:31.172Z,98590.03
2022-12-23T01:37:01.969Z,98588.84
2022-12-23T01:39:29.456Z,98594.41
2022-12-23T01:42:14.727Z,98592.38
2022-12-23T01:45:07.431Z,98601.75
2022-12-23T01:47:39.777Z,98600.25
2022-12-23T01:50:13.681Z,98604.53
2022-12-23T01:52:46.667Z,98603.88
2022-12-23T01:55:17.270Z,98602.53
2022-12-23T01:57:46.138Z,98606.13
2022-12-23T02:00:31.983Z,98601.03
2022-12-23T02:03:17.224Z,98605.03
2022-12-23T02:05:47.181Z,98605.34
2022-12-23T02:08:33.672Z,98608.47
2022-12-23T02:11:23.252Z,98607.47
2022-12-23T02:14:19.701Z,98608.59
2022-12-23T02:16:55.816Z,98620.78
2022-12-23T02:19:41.358Z,98620.19
2022-12-23T02:22:29.526Z,98609.28
2022-12-23T02:25:16.994Z,98622.75
2022-12-23T02:28:01.280Z,98623.03
2022-12-23T02:30:42.475Z,98626.69
2022-12-23T02:33:21.959Z,98633.28
2022-12-23T02:35:59.762Z,98633.13
2022-12-23T02:38:30.593Z,98625.59
2022-12-23T02:41:09.340Z,98632.88
2022-12-23T02:43:44.321Z,98633.78
2022-12-23T02:46:18.083Z,98640.94
2022-12-23T02:48:51.847Z,98646.44
2022-12-23T02:51:23.625Z,98649.25
2022-12-23T02:53:55.572Z,98650.72
2022-12-23T02:56:27.066Z,98665.22
2022-12-23T02:58:58.843Z,98669.84
2022-12-23T03:01:30.808Z,98659.53
2022-12-23T03:03:58.720Z,98658.28
2022-12-23T03:06:29.971Z,98673.41
2022-12-23T03:09:00.538Z,98663.53
2022-12-23T03:11:40.193Z,98663.06
2022-12-23T03:14:33.214Z,98673.16
2022-12-23T03:17:14.830Z,98653.16
2022-12-23T03:19:49.067Z,98671.69
2022-12-23T03:22:25.861Z,98675.31
2022-12-23T03:25:01.688Z,98673.19
2022-12-23T03:27:35.101Z,98675.69
2022-12-23T03:30:05.931Z,98688.22
2022-12-23T03:32:37.867Z,98699.94
2022-12-23T03:35:08.624Z,98698.75
2022-12-23T03:37:42.154Z,98704.63
2022-12-23T03:40:17.302Z,98702.09
2022-12-23T03:42:47.563Z,98698.09
2022-12-23T03:45:38.585Z,98707.44
2022-12-23T03:48:14.055Z,98701.31
2022-12-23T03:50:44.002Z,98697.78
2022-12-23T03:53:18.536Z,98703.44
2022-12-23T03:55:51.524Z,98707.44
2022-12-23T03:58:29.955Z,98701.81
2022-12-23T04:01:06.033Z,98701.53
2022-12-23T04:03:42.600Z,98698.47
2022-12-23T04:06:15.383Z,98693.38
2022-12-23T04:08:44.674Z,98699.44
2022-12-23T04:11:13.003Z,98693.38
2022-12-23T04:13:41.008Z,98698.50
2022-12-23T04:16:09.134Z,98700.31
2022-12-23T04:18:38.055Z,98709.91
2022-12-23T04:21:06.383Z,98699.06
2022-12-23T04:23:33.967Z,98703.63
2022-12-23T04:26:04.337Z,98711.44
2022-12-23T04:28:31.860Z,98709.91
2022-12-23T04:30:59.417Z,98715.13
2022-12-23T04:33:26.942Z,98713.97
2022-12-23T04:35:55.799Z,98706.69
2022-12-23T04:38:23.348Z,98704.41
2022-12-23T04:40:50.879Z,98702.59
2022-12-23T04:43:18.446Z,98702.97
2022-12-23T04:45:50.614Z,98694.63
2022-12-23T04:48:18.154Z,98706.88
2022-12-23T04:50:45.821Z,98704.78
2022-12-23T04:53:14.726Z,98709.91
2022-12-23T04:58:09.864Z,98717.72
2022-12-23T05:00:39.729Z,98713.81
2022-12-23T05:03:07.860Z,98721.88
2022-12-23T05:05:35.803Z,98710.69
2022-12-23T05:08:05.319Z,98724.31
2022-12-23T05:10:34.465Z,98725.34
2022-12-23T05:13:02.175Z,98722.16
2022-12-23T05:15:29.718Z,98727.59
2022-12-23T05:17:57.257Z,98732.53
2022-12-23T05:20:24.772Z,98731.19
2022-12-23T05:22:52.434Z,98733.84
2022-12-23T05:25:20.051Z,98724.94
2022-12-23T05:27:49.174Z,98726.41
2022-12-23T05:30:17.002Z,98728.53
2022-12-23T05:32:44.728Z,98720.28
2022-12-23T05:35:12.342Z,98720.34
2022-12-23T05:37:39.985Z,98721.63
2022-12-23T05:40:08.741Z,98724.69
2022-12-23T05:42:36.707Z,98721.13
2022-12-23T05:45:06.386Z,98722.00
2022-12-23T05:47:34.277Z,98724.25
2022-12-23T05:50:01.865Z,98711.88
2022-12-23T05:52:29.547Z,98723.78
2022-12-23T05:54:57.091Z,98728.69
2022-12-23T05:57:25.094Z,98726.91
2022-12-23T05:59:52.683Z,98730.84
2022-12-23T06:02:22.519Z,98744.97
2022-12-23T06:04:50.595Z,98754.69
2022-12-23T06:07:18.209Z,98757.91
2022-12-23T06:09:45.888Z,98771.69
2022-12-23T06:12:13.492Z,98771.88
2022-12-23T06:14:41.387Z,98771.31
2022-12-23T06:17:09.231Z,98769.41
2022-12-23T06:19:38.401Z,98777.03
2022-12-23T06:22:06.085Z,98771.03
2022-12-23T06:24:33.769Z,98770.19
2022-12-23T06:27:01.290Z,98771.78
2022-12-23T06:29:29.176Z,98762.38
2022-12-23T06:31:56.736Z,98770.53
2022-12-23T06:34:24.365Z,98774.44
2022-12-23T06:36:53.188Z,98772.25
2022-12-23T06:39:21.168Z,98774.28
2022-12-23T06:41:48.751Z,98761.72
2022-12-23T06:44:16.445Z,98764.66
2022-12-23T06:46:43.929Z,98753.63
2022-12-23T06:49:13.745Z,98758.22
2022-12-23T06:51:41.808Z,98753.16
2022-12-23T06:54:12.664Z,98754.44
2022-12-23T06:56:40.773Z,98748.28
2022-12-23T06:59:08.285Z,98753.03
2022-12-23T07:01:35.892Z,98762.94
2022-12-23T07:04:03.615Z,98761.81
2022-12-23T07:06:31.205Z,98764.47
2022-12-23T07:08:58.796Z,98757.72
2022-12-23T07:11:27.749Z,98759.03
2022-12-23T07:13:55.248Z,98771.81
2022-12-23T07:16:22.833Z,98767.47
2022-12-23T07:18:50.392Z,98784.22
2022-12-23T07:21:28.612Z,98781.38
2022-12-23T07:23:57.452Z,98790.69
2022-12-23T07:26:25.357Z,98795.63
2022-12-23T07:28:54.735Z,98796.41
2022-12-23T07:31:22.460Z,98803.16
2022-12-23T07:33:50.135Z,98811.22
2022-12-23T07:36:20.585Z,98819.59
2022-12-23T07:38:50.880Z,98827.31
2022-12-23T07:41:18.637Z,98838.19
2022-12-23T07:43:46.285Z,98848.97
2022-12-23T07:46:15.265Z,98851.81
2022-12-23T07:48:43.542Z,98852.94
2022-12-23T07:51:11.041Z,98864.91
2022-12-23T07:53:38.597Z,98854.59
2022-12-23T07:56:07.104Z,98854.47
2022-12-23T07:58:34.610Z,98847.16
2022-12-23T08:01:03.423Z,98848.97
2022-12-23T08:03:32.589Z,98851.16
2022-12-23T08:06:02.830Z,98831.34
2022-12-23T08:08:30.723Z,98841.66
2022-12-23T08:11:00.340Z,98829.56
2022-12-23T08:13:28.415Z,98828.53
2022-12-23T08:15:57.443Z,98836.97
2022-12-23T08:18:25.415Z,98824.91
2022-12-23T08:20:58.677Z,98839.75
2022-12-23T08:23:27.252Z,98829.97
2022-12-23T08:26:02.483Z,98827.56
2022-12-23T08:28:30.357Z,98826.25
2022-12-23T08:31:04.945Z,98829.41
2022-12-23T08:33:32.772Z,98834.50
2022-12-23T08:36:01.986Z,98840.66
2022-12-23T08:38:29.609Z,98842.41
2022-12-23T08:40:57.291Z,98835.13
2022-12-23T08:43:26.679Z,98826.81
2022-12-23T08:45:57.823Z,98823.75
2022-12-23T08:48:25.543Z,98834.91
2022-12-23T08:50:53.242Z,98829.22
2022-12-23T08:53:22.299Z,98827.84
2022-12-23T08:55:49.915Z,98824.13
2022-12-23T08:58:17.449Z,98805.88
2022-12-23T09:00:44.980Z,98817.47
2022-12-23T09:03:12.598Z,98829.81
2022-12-23T09:05:41.825Z,98835.44
2022-12-23T09:08:09.703Z,98841.81
2022-12-23T09:10:43.291Z,98844.88
2022-12-23T09:13:14.934Z,98840.28
2022-12-23T09:15:46.615Z,98835.53
2022-12-23T09:18:14.227Z,98841.06
2022-12-23T09:20:41.748Z,98837.25
2022-12-23T09:23:09.344Z,98830.38
2022-12-23T09:25:37.981Z,98830.00
2022-12-23T09:28:07.563Z,98831.09
2022-12-23T09:30:35.043Z,98826.50
2022-12-23T09:33:02.536Z,98824.81
2022-12-23T09:35:30.536Z,98831.63
2022-12-23T09:37:58.268Z,98829.63
2022-12-23T09:40:25.906Z,98828.53
2022-12-23T09:43:04.780Z,98825.19
2022-12-23T09:45:49.635Z,98810.72
2022-12-23T09:48:21.592Z,98809.47
2022-12-23T09:50:49.986Z,98815.16
2022-12-23T09:53:20.496Z,98804.63
2022-12-23T09:55:52.791Z,98795.22
2022-12-23T09:58:29.933Z,98789.66
2022-12-23T10:01:18.101Z,98791.13
2022-12-23T10:04:04.757Z,98793.03
2022-12-23T10:06:34.623Z,98791.78
2022-12-23T10:09:05.364Z,98790.03
2022-12-23T10:11:37.886Z,98783.69
2022-12-23T10:14:13.882Z,98795.09
2022-12-23T10:16:46.363Z,98785.28
2022-12-23T10:19:19.646Z,98790.41
2022-12-23T10:21:49.668Z,98784.63
2022-12-23T10:24:22.729Z,98773.44
2022-12-23T10:26:54.279Z,98771.31
2022-12-23T10:29:23.425Z,98761.56
2022-12-23T10:32:12.564Z,98762.09
2022-12-23T10:34:49.705Z,98753.38
2022-12-23T10:37:28.506Z,98743.16
2022-12-23T10:40:10.653Z,98730.69
2022-12-23T10:42:43.859Z,98730.91
2022-12-23T10:45:26.736Z,98728.91
2022-12-23T10:48:11.898Z,98711.06
2022-12-23T10:50:50.993Z,98704.69
2022-12-23T10:53:30.144Z,98707.16
2022-12-23T10:55:59.461Z,98706.72
2022-12-23T10:58:27.562Z,98705.97
2022-12-23T11:00:58.362Z,98703.41
2022-12-23T11:03:32.015Z,98700.84
2022-12-23T11:06:01.469Z,98696.88
2022-12-23T11:08:31.624Z,98695.84
2022-12-23T11:11:01.097Z,98685.91
2022-12-23T11:13:37.001Z,98688.69
2022-12-23T11:16:21.956Z,98685.47
2022-12-23T11:18:56.763Z,98685.16
2022-12-23T11:21:24.471Z,98677.78
2022-12-23T11:24:08.350Z,98668.97
2022-12-23T11:26:36.440Z,98649.22
2022-12-23T11:29:07.822Z,98650.59
2022-12-23T11:31:36.731Z,98653.47
2022-12-23T11:34:08.192Z,98665.75
2022-12-23T11:36:36.161Z,98651.88
2022-12-23T11:39:08.594Z,98653.78
2022-12-23T11:41:38.847Z,98644.53
2022-12-23T11:44:11.693Z,98651.00
2022-12-23T11:46:39.325Z,98650.38
2022-12-23T11:49:16.212Z,98649.28
2022-12-23T11:51:44.264Z,98641.19
2022-12-23T11:54:17.526Z,98640.53
2022-12-23T11:56:45.848Z,98634.47
2022-12-23T11:59:34.924Z,98631.38
2022-12-23T12:02:05.818Z,98616.44
2022-12-23T12:04:36.612Z,98619.00
2022-12-23T12:07:05.697Z,98606.25
2022-12-23T12:09:34.773Z,98593.53
2022-12-23T12:12:06.405Z,98594.72
2022-12-23T12:14:41.769Z,98587.78
2022-12-23T12:17:15.363Z,98571.59
2022-12-23T12:19:54.524Z,98558.81
2022-12-23T12:22:30.517Z,98555.72
2022-12-23T12:25:00.827Z,98540.09
2022-12-23T12:27:36.830Z,98532.72
2022-12-23T12:30:08.927Z,98526.00
2022-12-23T12:32:45.061Z,98519.63
2022-12-23T12:35:19.211Z,98511.94
2022-12-23T12:37:52.996Z,98508.44
2022-12-23T12:40:31.367Z,98510.03
2022-12-23T12:43:05.190Z,98505.88
2022-12-23T12:45:37.353Z,98499.81
2022-12-23T12:48:22.541Z,98506.41
2022-12-23T12:51:00.146Z,98511.53
2022-12-23T12:53:29.664Z,98511.84
2022-12-23T12:56:04.235Z,98513.97
2022-12-23T12:58:31.925Z,98513.41
2022-12-23T13:01:13.970Z,98500.53
2022-12-23T13:04:11.449Z,98500.00
2022-12-23T13:06:48.427Z,98501.63
2022-12-23T13:09:25.576Z,98495.03
2022-12-23T13:12:00.879Z,98484.44
2022-12-23T13:14:34.561Z,98476.81
2022-12-23T13:17:09.501Z,98473.59
2022-12-23T13:19:43.650Z,98466.03
2022-12-23T13:22:16.869Z,98457.84
2022-12-23T13:24:57.495Z,98444.63
2022-12-23T13:27:32.667Z,98449.97
2022-12-23T13:30:21.491Z,98444.22
2022-12-23T13:33:09.836Z,98440.88
2022-12-23T13:35:49.802Z,98427.59
2022-12-23T13:38:29.256Z,98421.72
2022-12-23T13:41:03.554Z,98396.47
2022-12-23T13:43:40.915Z,98386.25
2022-12-23T13:46:18.762Z,98371.66
2022-12-23T13:48:54.563Z,98366.69
2022-12-23T13:51:29.913Z,98355.41
2022-12-23T13:54:06.639Z,98363.63
2022-12-23T13:56:42.486Z,98361.38
2022-12-23T13:59:11.279Z,98346.16
2022-12-23T14:01:46.406Z,98347.31
2022-12-23T14:04:35.678Z,98338.81
2022-12-23T14:07:07.894Z,98329.78
2022-12-23T14:09:39.160Z,98327.72
2022-12-23T14:12:14.443Z,98315.81
2022-12-23T14:14:47.826Z,98322.06
2022-12-23T14:17:25.222Z,98319.25
2022-12-23T14:20:01.132Z,98313.97
2022-12-23T14:22:49.935Z,98299.44
2022-12-23T14:25:46.834Z,98292.41
2022-12-23T14:28:28.949Z,98281.31
2022-12-23T14:30:57.310Z,98291.13
2022-12-23T14:33:27.222Z,98283.97
2022-12-23T14:36:14.059Z,98276.22
2022-12-23T14:38:41.650Z,98262.19
2022-12-23T14:41:26.197Z,98267.09
2022-12-23T14:43:59.226Z,98260.72
2022-12-23T14:47:02.432Z,98254.56
2022-12-23T14:49:41.239Z,98247.28
2022-12-23T14:52:57.775Z,98239.97
2022-12-23T14:55:46.835Z,98224.84
2022-12-23T14:58:39.305Z,98233.47
2022-12-23T15:01:12.793Z,98229.44
2022-12-23T15:03:48.805Z,98238.25
2022-12-23T15:06:20.106Z,98253.78
2022-12-23T15:08:51.544Z,98250.91
2022-12-23T15:11:24.076Z,98234.56
2022-12-23T15:13:55.661Z,98224.09
2022-12-23T15:16:31.502Z,98218.22
2022-12-23T15:19:02.700Z,98209.91
2022-12-23T15:21:33.496Z,98212.19
2022-12-23T15:24:01.359Z,98211.41
2022-12-23T15:26:32.488Z,98202.66
2022-12-23T15:29:01.835Z,98198.66
2022-12-23T15:31:33.401Z,98203.84
2022-12-23T15:34:08.918Z,98199.47
2022-12-23T15:36:44.595Z,98184.50
2022-12-23T15:39:20.034Z,98195.84
2022-12-23T15:41:49.168Z,98191.66
2022-12-23T15:44:21.033Z,98181.00
2022-12-23T15:46:49.327Z,98184.00
2022-12-23T15:49:17.660Z,98173.34
2022-12-23T15:52:07.159Z,98191.78
2022-12-23T15:54:40.974Z,98198.41
2022-12-23T15:57:08.970Z,98195.16
2022-12-23T15:59:39.703Z,98196.13
2022-12-23T16:02:49.782Z,98202.41
2022-12-23T16:05:05.860Z,98201.13
2022-12-23T16:07:35.877Z,98200.38
2022-12-23T16:10:14.328Z,98200.69
2022-12-23T16:12:42.899Z,98196.59
2022-12-23T16:15:27.061Z,98199.28
2022-12-23T16:18:13.064Z,98212.63
2022-12-23T16:20:44.010Z,98204.91
2022-12-23T16:23:12.945Z,98210.41
2022-12-23T16:25:46.827Z,98213.56
2022-12-23T16:28:22.757Z,98210.72
2022-12-23T16:30:54.063Z,98213.16
2022-12-23T16:33:27.944Z,98206.03
2022-12-23T16:35:56.034Z,98218.03
2022-12-23T16:38:25.739Z,98226.63
2022-12-23T16:40:54.506Z,98210.41
2022-12-23T16:43:23.354Z,98209.31
2022-12-23T16:45:54.814Z,98207.00
2022-12-23T16:48:28.978Z,98204.59
2022-12-23T16:50:57.047Z,98213.47
2022-12-23T16:53:24.853Z,98224.09
2022-12-23T16:55:58.530Z,98214.06
2022-12-23T16:58:28.312Z,98212.38
2022-12-23T17:00:57.836Z,98218.06
2022-12-23T17:03:25.315Z,98232.72
2022-12-23T17:05:52.819Z,98235.22
2022-12-23T17:08:20.303Z,98246.22
2022-12-23T17:10:47.951Z,98241.53
2022-12-23T17:13:18.210Z,98231.81
2022-12-23T17:15:45.986Z,98237.91
2022-12-23T17:18:16.849Z,98227.00
2022-12-23T17:20:45.554Z,98222.19
2022-12-23T17:23:24.992Z,98215.47
2022-12-23T17:25:52.780Z,98241.06
2022-12-23T17:28:20.659Z,98246.63
2022-12-23T17:30:50.168Z,98247.31
2022-12-23T17:33:20.188Z,98282.31
2022-12-23T17:35:47.984Z,98274.53
2022-12-23T17:38:16.654Z,98259.75
2022-12-23T17:40:46.202Z,98263.88
2022-12-23T17:43:15.085Z,98272.78
2022-12-23T17:45:43.052Z,98277.88
2022-12-23T17:48:16.355Z,98286.63
2022-12-23T17:50:49.748Z,98292.72
2022-12-23T17:53:18.789Z,98294.63
2022-12-23T17:55:46.648Z,98291.81
2022-12-23T17:58:14.990Z,98313.03
2022-12-23T18:00:42.704Z,98304.25
2022-12-23T18:03:21.804Z,98313.97
2022-12-23T18:05:55.654Z,98305.16
2022-12-23T18:08:26.734Z,98312.97
2022-12-23T18:10:54.253Z,98322.97
2022-12-23T18:13:22.415Z,98312.31
2022-12-23T18:15:50.973Z,98326.13
2022-12-23T18:18:28.658Z,98342.09
2022-12-23T18:21:00.199Z,98350.75
2022-12-23T18:23:29.439Z,98353.81
2022-12-23T18:25:58.109Z,98340.63
2022-12-23T18:28:25.868Z,98359.72
2022-12-23T18:30:56.993Z,98372.69
2022-12-23T18:33:28.587Z,98362.25
2022-12-23T18:35:56.280Z,98366.72
2022-12-23T18:38:25.163Z,98376.88
2022-12-23T18:40:54.261Z,98379.84
2022-12-23T18:43:24.679Z,98383.81
2022-12-23T18:45:54.205Z,98386.59
2022-12-23T18:48:22.330Z,98389.25
2022-12-23T18:50:49.962Z,98399.84
2022-12-23T18:53:24.352Z,98383.59
2022-12-23T18:55:54.858Z,98374.91
2022-12-23T18:58:23.089Z,98400.19
2022-12-23T19:00:52.534Z,98396.72
2022-12-23T19:03:23.700Z,98405.16
2022-12-23T19:05:52.248Z,98416.53
2022-12-23T19:08:26.309Z,98411.41
2022-12-23T19:10:56.569Z,98420.91
2022-12-23T19:13:24.653Z,98424.97
2022-12-23T19:15:52.833Z,98436.69
2022-12-23T19:18:22.171Z,98441.09
2022-12-23T19:20:50.253Z,98432.78
2022-12-23T19:23:17.831Z,98441.41
2022-12-23T19:25:52.454Z,98448.44
2022-12-23T19:28:24.799Z,98442.56
2022-12-23T19:30:52.357Z,98436.25
2022-12-23T19:33:19.899Z,98453.13
2022-12-23T19:35:47.420Z,98455.66
2022-12-23T19:38:14.912Z,98468.03
2022-12-23T19:40:42.449Z,98461.63
2022-12-23T19:43:09.962Z,98466.88
2022-12-23T19:45:38.784Z,98467.41
2022-12-23T19:48:06.704Z,98481.88
2022-12-23T19:50:34.171Z,98484.97
2022-12-23T19:53:01.649Z,98478.94
2022-12-23T19:55:29.131Z,98484.03
2022-12-23T19:57:56.614Z,98477.97
2022-12-23T20:00:24.189Z,98476.25
2022-12-23T20:02:58.673Z,98479.97
2022-12-23T20:05:26.757Z,98482.09
2022-12-23T20:07:54.264Z,98484.44
2022-12-23T20:10:21.748Z,98490.44
2022-12-23T20:12:49.214Z,98494.75
2022-12-23T20:15:16.784Z,98496.19
2022-12-23T20:17:44.303Z,98501.72
2022-12-23T20:20:13.605Z,98502.66
2022-12-23T20:22:41.115Z,98505.34
2022-12-23T20:25:09.363Z,98518.22
2022-12-23T20:27:38.630Z,98512.28
2022-12-23T20:30:07.295Z,98514.84
2022-12-23T20:32:34.823Z,98512.03
2022-12-23T20:35:02.353Z,98516.41
2022-12-23T20:37:31.288Z,98516.97
2022-12-23T20:39:58.745Z,98534.63
2022-12-23T20:42:26.993Z,98537.22
2022-12-23T20:44:54.494Z,98541.47
2022-12-23T20:47:21.961Z,98555.31
2022-12-23T20:49:49.517Z,98551.69
2022-12-23T20:52:17.536Z,98552.00
2022-12-23T20:54:46.304Z,98562.47
2022-12-23T20:57:13.791Z,98546.88
2022-12-23T20:59:41.236Z,98568.41
2022-12-23T21:02:12.802Z,98574.50
2022-12-23T21:04:40.352Z,98572.34
2022-12-23T21:07:08.137Z,98562.75
2022-12-23T21:09:35.958Z,98574.81
2022-12-23T21:12:05.077Z,98583.75
2022-12-23T21:14:32.759Z,98588.78
2022-12-23T21:17:00.287Z,98593.44
2022-12-23T21:19:27.815Z,98602.91
2022-12-23T21:21:55.282Z,98608.44
2022-12-23T21:24:22.788Z,98588.22
2022-12-23T21:26:56.413Z,98587.59
2022-12-23T21:29:26.893Z,98600.78
2022-12-23T21:31:54.896Z,98590.03
2022-12-23T21:34:22.708Z,98594.84
2022-12-23T21:36:50.387Z,98600.78
2022-12-23T21:39:19.758Z,98608.47
2022-12-23T21:41:49.053Z,98606.19
2022-12-23T21:44:16.532Z,98609.28
2022-12-23T21:46:45.430Z,98602.66
2022-12-23T21:49:13.847Z,98609.94
2022-12-23T21:51:42.273Z,98622.50
2022-12-23T21:54:11.212Z,98620.59
2022-12-23T21:56:39.850Z,98629.53
2022-12-23T21:59:09.548Z,98634.66
2022-12-23T22:01:36.974Z,98640.19
2022-12-23T22:04:06.183Z,98655.22
2022-12-23T22:06:36.505Z,98656.56
2022-12-23T22:09:04.559Z,98666.03
2022-12-23T22:11:34.884Z,98668.78
2022-12-23T22:14:03.682Z,98656.72
2022-12-23T22:16:32.247Z,98676.41
2022-12-23T22:19:01.292Z,98674.41
2022-12-23T22:21:32.050Z,98666.28
2022-12-23T22:24:00.109Z,98678.75
2022-12-23T22:26:29.218Z,98679.59
2022-12-23T22:28:58.464Z,98677.03
2022-12-23T22:31:32.720Z,98692.63
2022-12-23T22:34:00.574Z,98686.22
2022-12-23T22:36:28.411Z,98688.06
2022-12-23T22:38:59.388Z,98702.78
2022-12-23T22:41:28.731Z,98706.03
2022-12-23T22:43:56.888Z,98717.94
2022-12-23T22:46:25.289Z,98703.28
2022-12-23T22:48:53.227Z,98719.50
2022-12-23T22:51:23.230Z,98716.00
2022-12-23T22:53:51.299Z,98730.91
2022-12-23T22:56:21.968Z,98731.31
2022-12-23T22:58:50.330Z,98732.91
2022-12-23T23:01:22.336Z,98729.31
2022-12-23T23:03:51.012Z,98739.38
2022-12-23T23:06:19.021Z,98741.09
2022-12-23T23:08:46.559Z,98753.16
2022-12-23T23:11:14.036Z,98753.84
2022-12-23T23:13:42.917Z,98764.94
2022-12-23T23:16:10.478Z,98757.69
2022-12-23T23:18:39.200Z,98759.63
2022-12-23T23:21:06.891Z,98758.94
2022-12-23T23:23:34.834Z,98762.56
2022-12-23T23:26:02.916Z,98771.22
2022-12-23T23:28:30.401Z,98765.22
2022-12-23T23:31:31.899Z,98773.59
2022-12-23T23:33:46.757Z,98780.72
2022-12-23T23:36:14.297Z,98780.44
2022-12-23T23:38:41.972Z,98781.94
2022-12-23T23:41:09.504Z,98786.50
2022-12-23T23:43:36.997Z,98790.81
2022-12-23T23:46:05.984Z,98782.06
2022-12-23T23:48:33.489Z,98791.44
2022-12-23T23:51:05.857Z,98785.97
2022-12-23T23:53:33.340Z,98774.44
2022-12-23T23:56:06.486Z,98777.97
2022-12-23T23:58:34.269Z,98789.94
